Time;durP1;ratioP1;P1;durP2;ratioP2;P2;SDS_P1;SDS_P2;PMS_P1;PMS_P2;Temp;Humidity;BMP_temperature;BMP_pressure;BME280_temperature;BME280_humidity;BME280_pressure;Samples;Min_cycle;Max_cycle;Signal;HPM_P1;HPM_P2
2023/06/02 00:01:07;;;;;;;2.23;2.10;;;;;;;;;;5040401;28;20208;-58
2023/06/02 00:03:37;;;;;;;1.97;1.87;;;;;;;;;;5049183;28;20207;-59
2023/06/02 00:06:05;;;;;;;1.77;1.67;;;;;;;;;;5048074;28;20235;-58
2023/06/02 00:08:32;;;;;;;2.30;1.97;;;;;;;;;;5046227;28;20318;-58
2023/06/02 00:11:00;;;;;;;1.60;1.60;;;;;;;;;;5041331;28;20212;-58
2023/06/02 00:13:27;;;;;;;2.40;1.87;;;;;;;;;;5045299;28;20204;-59
2023/06/02 00:15:54;;;;;;;1.70;1.60;;;;;;;;;;5047042;28;20622;-58
2023/06/02 00:18:22;;;;;;;2.70;2.30;;;;;;;;;;5047171;28;20638;-58
2023/06/02 00:20:51;;;;;;;2.50;1.90;;;;;;;;;;5048284;28;20709;-59
2023/06/02 00:23:18;;;;;;;1.63;1.63;;;;;;;;;;5048731;28;20739;-58
2023/06/02 00:25:46;;;;;;;1.90;1.80;;;;;;;;;;5048911;28;20203;-58
2023/06/02 00:28:13;;;;;;;2.20;2.03;;;;;;;;;;5048807;28;20334;-58
2023/06/02 00:30:40;;;;;;;2.10;2.00;;;;;;;;;;5048445;28;20211;-59
2023/06/02 00:33:07;;;;;;;2.97;2.07;;;;;;;;;;5048881;28;20204;-58
2023/06/02 00:35:34;;;;;;;2.10;2.00;;;;;;;;;;5048215;28;20207;-58
2023/06/02 00:38:04;;;;;;;2.33;1.97;;;;;;;;;;5038272;28;20264;-59
2023/06/02 00:40:31;;;;;;;3.47;2.50;;;;;;;;;;5044114;28;20712;-59
2023/06/02 00:42:58;;;;;;;1.97;1.87;;;;;;;;;;5071441;28;20244;-58
2023/06/02 00:45:25;;;;;;;2.00;1.90;;;;;;;;;;5078218;28;20639;-59
2023/06/02 00:47:52;;;;;;;5.03;2.20;;;;;;;;;;5082898;28;20347;-59
2023/06/02 00:50:19;;;;;;;1.57;1.47;;;;;;;;;;5085049;28;20288;-60
2023/06/02 00:52:47;;;;;;;4.63;1.77;;;;;;;;;;5087954;28;20202;-57
2023/06/02 00:55:15;;;;;;;2.37;2.10;;;;;;;;;;5079495;28;20282;-57
2023/06/02 00:57:42;;;;;;;1.43;1.10;;;;;;;;;;5086982;28;20244;-57
2023/06/02 01:00:10;;;;;;;1.90;1.80;;;;;;;;;;5074233;28;20211;-57
2023/06/02 01:02:37;;;;;;;0.90;0.90;;;;;;;;;;5073236;28;20211;-58
2023/06/02 01:05:07;;;;;;;1.90;1.80;;;;;;;;;;5067120;28;20214;-57
2023/06/02 01:07:36;;;;;;;1.73;1.63;;;;;;;;;;5082866;28;20831;-57
2023/06/02 01:10:03;;;;;;;2.00;1.90;;;;;;;;;;5087264;28;20232;-58
2023/06/02 01:12:32;;;;;;;1.80;1.70;;;;;;;;;;5081616;28;20557;-57
2023/06/02 01:14:59;;;;;;;2.30;1.90;;;;;;;;;;5078357;28;20253;-59
2023/06/02 01:17:30;;;;;;;2.17;2.07;;;;;;;;;;5075288;28;20929;-60
2023/06/02 01:20:10;;;;;;;1.97;1.87;;;;;;;;;;5086017;28;20287;-59
2023/06/02 01:22:40;;;;;;;1.73;1.63;;;;;;;;;;5082427;28;20726;-60
2023/06/02 01:25:18;;;;;;;1.87;1.43;;;;;;;;;;5072680;28;20211;-60
2023/06/02 01:27:45;;;;;;;2.60;1.63;;;;;;;;;;5084856;28;20233;-57
2023/06/02 01:30:13;;;;;;;1.43;1.33;;;;;;;;;;5071116;28;20226;-57
2023/06/02 01:32:41;;;;;;;1.03;0.87;;;;;;;;;;5068705;28;20276;-57
2023/06/02 01:35:11;;;;;;;1.87;1.77;;;;;;;;;;5067685;28;20207;-57
2023/06/02 01:37:41;;;;;;;2.23;2.03;;;;;;;;;;5077469;28;20264;-57
2023/06/02 01:40:09;;;;;;;2.43;2.00;;;;;;;;;;5087782;28;20522;-57
2023/06/02 01:42:38;;;;;;;2.10;2.00;;;;;;;;;;5082635;28;20263;-57
2023/06/02 01:45:06;;;;;;;1.70;1.60;;;;;;;;;;5076758;28;20262;-60
2023/06/02 01:47:33;;;;;;;3.53;1.67;;;;;;;;;;5073886;28;20669;-59
2023/06/02 01:50:00;;;;;;;2.57;2.13;;;;;;;;;;5083231;28;20229;-60
2023/06/02 01:52:27;;;;;;;1.87;1.77;;;;;;;;;;5083595;28;20267;-60
2023/06/02 01:54:54;;;;;;;1.97;1.77;;;;;;;;;;5086782;28;20263;-59
2023/06/02 01:57:22;;;;;;;2.30;2.20;;;;;;;;;;5086837;28;20290;-59
2023/06/02 01:59:50;;;;;;;2.20;2.03;;;;;;;;;;5084415;28;20222;-60
2023/06/02 02:02:17;;;;;;;4.13;2.20;;;;;;;;;;5073007;28;20211;-59
2023/06/02 02:04:45;;;;;;;1.70;1.50;;;;;;;;;;5068360;28;20207;-60
2023/06/02 02:07:13;;;;;;;1.70;1.60;;;;;;;;;;5067151;28;20865;-59
2023/06/02 02:09:42;;;;;;;2.03;1.93;;;;;;;;;;5070558;28;20309;-59
2023/06/02 02:12:09;;;;;;;2.00;1.93;;;;;;;;;;5078816;28;20680;-59
2023/06/02 02:14:36;;;;;;;2.03;1.87;;;;;;;;;;5085840;28;20210;-60
2023/06/02 02:17:05;;;;;;;2.17;2.07;;;;;;;;;;5085552;28;20313;-59
2023/06/02 02:19:44;;;;;;;2.30;2.20;;;;;;;;;;5086815;28;20206;-60
2023/06/02 02:22:12;;;;;;;2.43;2.20;;;;;;;;;;5076342;28;20217;-60
2023/06/02 02:24:39;;;;;;;4.83;2.30;;;;;;;;;;5069621;28;20206;-59
2023/06/02 02:27:08;;;;;;;1.87;1.63;;;;;;;;;;5076252;28;20559;-59
2023/06/02 02:29:35;;;;;;;3.70;2.13;;;;;;;;;;5077843;28;20237;-60
2023/06/02 02:32:02;;;;;;;2.87;1.77;;;;;;;;;;5072095;28;20623;-60
2023/06/02 02:34:33;;;;;;;2.30;2.17;;;;;;;;;;5072726;28;20207;-60
2023/06/02 02:37:01;;;;;;;2.47;2.23;;;;;;;;;;5074315;28;20213;-59
2023/06/02 02:39:28;;;;;;;2.33;2.20;;;;;;;;;;5086893;28;20199;-60
2023/06/02 02:41:56;;;;;;;3.00;1.90;;;;;;;;;;5087745;28;20238;-60
2023/06/02 02:44:23;;;;;;;2.00;1.90;;;;;;;;;;5080979;28;20198;-57
2023/06/02 02:46:50;;;;;;;2.47;2.27;;;;;;;;;;5084521;28;20218;-57
2023/06/02 02:49:17;;;;;;;2.03;1.80;;;;;;;;;;5085858;28;20312;-58
2023/06/02 02:51:46;;;;;;;2.33;2.23;;;;;;;;;;5085988;28;20218;-57
2023/06/02 02:54:13;;;;;;;2.70;2.13;;;;;;;;;;5087074;28;20264;-57
2023/06/02 02:56:40;;;;;;;1.87;1.77;;;;;;;;;;5081343;28;20264;-58
2023/06/02 02:59:07;;;;;;;2.67;2.30;;;;;;;;;;5077230;28;20206;-57
2023/06/02 03:01:34;;;;;;;2.10;2.00;;;;;;;;;;5073009;28;20717;-58
2023/06/02 03:04:01;;;;;;;2.03;1.93;;;;;;;;;;5076470;28;20252;-58
2023/06/02 03:06:31;;;;;;;2.03;1.90;;;;;;;;;;5070677;28;20304;-59
2023/06/02 03:09:00;;;;;;;2.47;2.17;;;;;;;;;;5079611;28;20222;-59
2023/06/02 03:11:27;;;;;;;7.65;1.98;;;;;;;;;;5084806;28;20292;-58
2023/06/02 03:13:54;;;;;;;1.95;1.85;;;;;;;;;;5078353;28;20665;-58
2023/06/02 03:16:21;;;;;;;2.23;2.03;;;;;;;;;;5076540;28;20235;-58
2023/06/02 03:18:48;;;;;;;4.60;1.90;;;;;;;;;;5073117;28;20706;-59
2023/06/02 03:21:17;;;;;;;3.60;2.07;;;;;;;;;;5088689;28;20765;-58
2023/06/02 03:23:44;;;;;;;2.07;1.97;;;;;;;;;;5076617;28;20207;-58
2023/06/02 03:26:13;;;;;;;2.03;1.93;;;;;;;;;;5072752;28;20698;-59
2023/06/02 03:28:41;;;;;;;2.33;1.90;;;;;;;;;;5076120;28;20207;-58
2023/06/02 03:31:08;;;;;;;2.30;2.17;;;;;;;;;;5087030;28;20202;-58
2023/06/02 03:33:35;;;;;;;1.70;1.67;;;;;;;;;;5089715;28;20253;-58
2023/06/02 03:36:02;;;;;;;2.75;1.90;;;;;;;;;;5072886;28;20207;-58
2023/06/02 03:38:29;;;;;;;2.30;2.10;;;;;;;;;;5088539;28;20237;-58
2023/06/02 03:40:56;;;;;;;1.77;1.67;;;;;;;;;;5087946;28;20202;-58
2023/06/02 03:43:25;;;;;;;2.10;1.90;;;;;;;;;;5074028;28;20231;-59
2023/06/02 03:45:52;;;;;;;2.37;2.17;;;;;;;;;;5082710;28;20322;-58
2023/06/02 03:48:19;;;;;;;2.00;1.90;;;;;;;;;;5072123;28;20203;-58
2023/06/02 03:50:46;;;;;;;2.57;2.37;;;;;;;;;;5072046;28;20695;-59
2023/06/02 03:53:13;;;;;;;2.10;2.00;;;;;;;;;;5085691;28;20260;-58
2023/06/02 03:55:40;;;;;;;2.10;2.00;;;;;;;;;;5084319;28;20271;-58
2023/06/02 03:58:07;;;;;;;2.20;2.00;;;;;;;;;;5088768;28;20737;-59
2023/06/02 04:00:35;;;;;;;1.93;1.83;;;;;;;;;;5072169;28;20252;-58
2023/06/02 04:03:02;;;;;;;2.13;2.00;;;;;;;;;;5084888;28;20218;-58
2023/06/02 04:05:29;;;;;;;1.83;1.40;;;;;;;;;;5083869;28;20292;-59
2023/06/02 04:07:56;;;;;;;2.10;2.00;;;;;;;;;;5086436;28;20203;-58
2023/06/02 04:10:23;;;;;;;1.45;1.35;;;;;;;;;;5084123;28;20309;-59
2023/06/02 04:12:50;;;;;;;6.93;2.40;;;;;;;;;;5073147;28;20280;-59
2023/06/02 04:15:17;;;;;;;2.67;2.47;;;;;;;;;;5075050;28;20210;-59
2023/06/02 04:17:46;;;;;;;2.43;2.23;;;;;;;;;;5083924;28;20314;-59
2023/06/02 04:20:24;;;;;;;3.65;2.42;;;;;;;;;;5086651;28;20619;-58
2023/06/02 04:22:51;;;;;;;2.40;2.30;;;;;;;;;;5089282;28;20239;-59
2023/06/02 04:25:19;;;;;;;1.88;1.42;;;;;;;;;;5078191;28;20210;-58
2023/06/02 04:27:46;;;;;;;2.63;1.75;;;;;;;;;;5068583;28;20661;-58
2023/06/02 04:30:13;;;;;;;3.00;2.00;;;;;;;;;;5070227;28;20219;-58
2023/06/02 04:32:40;;;;;;;2.50;2.07;;;;;;;;;;5069108;28;20203;-58
2023/06/02 04:35:09;;;;;;;2.15;1.92;;;;;;;;;;5068574;28;20306;-58
2023/06/02 04:37:36;;;;;;;2.37;2.13;;;;;;;;;;5075214;28;20252;-60
2023/06/02 04:40:06;;;;;;;1.88;1.77;;;;;;;;;;5087973;28;20209;-59
2023/06/02 04:42:33;;;;;;;2.30;2.10;;;;;;;;;;5072065;28;20239;-59
2023/06/02 04:45:01;;;;;;;2.30;2.20;;;;;;;;;;5076199;28;20325;-59
2023/06/02 04:47:28;;;;;;;2.23;1.90;;;;;;;;;;5071953;28;20629;-59
2023/06/02 04:49:55;;;;;;;3.60;2.27;;;;;;;;;;5082143;28;20330;-59
2023/06/02 04:52:24;;;;;;;2.73;2.00;;;;;;;;;;5087744;28;20236;-60
2023/06/02 04:54:51;;;;;;;2.77;2.17;;;;;;;;;;5088527;28;20205;-59
2023/06/02 04:57:18;;;;;;;2.83;1.97;;;;;;;;;;5088678;28;20210;-59
2023/06/02 04:59:45;;;;;;;4.03;2.13;;;;;;;;;;5087394;28;20297;-59
2023/06/02 05:02:13;;;;;;;3.80;1.80;;;;;;;;;;5083060;28;20202;-59
2023/06/02 05:04:40;;;;;;;2.90;2.50;;;;;;;;;;5086933;28;20225;-59
2023/06/02 05:07:07;;;;;;;1.93;1.83;;;;;;;;;;5086674;28;20214;-60
2023/06/02 05:09:36;;;;;;;2.43;2.17;;;;;;;;;;5087445;28;20336;-59
2023/06/02 05:12:03;;;;;;;2.47;2.27;;;;;;;;;;5083518;28;20280;-59
2023/06/02 05:14:30;;;;;;;4.33;2.60;;;;;;;;;;5084966;28;20789;-59
2023/06/02 05:16:57;;;;;;;1.90;1.80;;;;;;;;;;5084324;28;20206;-59
2023/06/02 05:19:24;;;;;;;2.63;2.40;;;;;;;;;;5087528;28;20647;-59
2023/06/02 05:21:51;;;;;;;1.77;1.67;;;;;;;;;;5083114;28;20267;-59
2023/06/02 05:24:18;;;;;;;4.43;1.63;;;;;;;;;;5082312;28;20672;-59
2023/06/02 05:26:46;;;;;;;3.70;2.50;;;;;;;;;;5077280;28;20218;-59
2023/06/02 05:29:13;;;;;;;2.57;1.93;;;;;;;;;;5072933;28;20399;-59
2023/06/02 05:31:40;;;;;;;2.03;1.57;;;;;;;;;;5078354;28;20336;-59
2023/06/02 05:34:07;;;;;;;1.80;1.70;;;;;;;;;;5076868;28;20226;-59
2023/06/02 05:36:35;;;;;;;3.60;1.40;;;;;;;;;;5078313;28;20259;-60
2023/06/02 05:39:02;;;;;;;2.33;1.70;;;;;;;;;;5069855;28;20203;-60
2023/06/02 05:41:29;;;;;;;2.40;2.00;;;;;;;;;;5090072;28;20624;-63
2023/06/02 05:43:57;;;;;;;2.90;1.33;;;;;;;;;;5068583;28;20249;-60
2023/06/02 05:46:25;;;;;;;2.47;1.40;;;;;;;;;;5085927;28;20839;-60
2023/06/02 05:48:52;;;;;;;2.50;1.70;;;;;;;;;;5076283;28;20249;-60
2023/06/02 05:51:19;;;;;;;4.63;1.83;;;;;;;;;;5076585;28;20600;-59
2023/06/02 05:53:49;;;;;;;1.97;1.63;;;;;;;;;;5084156;28;20234;-59
2023/06/02 05:56:20;;;;;;;2.17;1.83;;;;;;;;;;5068156;28;20688;-58
2023/06/02 05:58:47;;;;;;;2.17;2.07;;;;;;;;;;5076505;28;20266;-59
2023/06/02 06:01:15;;;;;;;3.00;1.60;;;;;;;;;;5085902;28;20198;-58
2023/06/02 06:03:42;;;;;;;3.60;1.60;;;;;;;;;;5074978;28;20203;-58
2023/06/02 06:06:09;;;;;;;1.90;1.43;;;;;;;;;;5082824;28;20217;-58
2023/06/02 06:08:36;;;;;;;3.87;1.80;;;;;;;;;;5082290;28;20741;-58
2023/06/02 06:11:04;;;;;;;2.97;1.50;;;;;;;;;;5085940;28;20245;-58
2023/06/02 06:13:31;;;;;;;2.93;1.40;;;;;;;;;;5087244;28;20222;-59
2023/06/02 06:15:58;;;;;;;1.25;1.25;;;;;;;;;;5087489;28;20266;-58
2023/06/02 06:18:26;;;;;;;3.03;2.40;;;;;;;;;;5072394;28;20210;-58
2023/06/02 06:20:53;;;;;;;2.00;1.50;;;;;;;;;;5075485;28;20237;-58
2023/06/02 06:23:20;;;;;;;7.57;0.37;;;;;;;;;;5085641;28;20206;-59
2023/06/02 06:25:47;;;;;;;2.50;2.30;;;;;;;;;;5087496;28;20320;-59
2023/06/02 06:28:14;;;;;;;2.67;1.63;;;;;;;;;;5082354;28;20727;-59
2023/06/02 06:30:41;;;;;;;3.53;2.00;;;;;;;;;;5080842;28;20230;-59
2023/06/02 06:33:09;;;;;;;5.80;1.90;;;;;;;;;;5087419;28;20202;-60
2023/06/02 06:35:37;;;;;;;1.60;1.50;;;;;;;;;;5075616;28;20264;-58
2023/06/02 06:38:04;;;;;;;2.13;1.63;;;;;;;;;;5086112;28;20210;-58
2023/06/02 06:40:31;;;;;;;1.77;1.77;;;;;;;;;;5086821;28;20744;-58
2023/06/02 06:42:58;;;;;;;2.33;1.65;;;;;;;;;;5086347;28;20242;-58
2023/06/02 06:45:25;;;;;;;1.83;1.73;;;;;;;;;;5086641;28;20624;-59
2023/06/02 06:47:52;;;;;;;2.63;1.88;;;;;;;;;;5076855;28;20195;-59
2023/06/02 06:50:19;;;;;;;1.85;1.75;;;;;;;;;;5066007;28;20304;-59
2023/06/02 06:52:49;;;;;;;2.30;1.20;;;;;;;;;;5064530;28;20215;-59
2023/06/02 06:55:16;;;;;;;2.78;1.70;;;;;;;;;;5067811;28;20206;-58
2023/06/02 06:57:43;;;;;;;7.03;1.70;;;;;;;;;;5064335;28;20602;-58
2023/06/02 07:00:10;;;;;;;1.45;1.45;;;;;;;;;;5066134;28;20210;-59
2023/06/02 07:02:37;;;;;;;3.25;1.90;;;;;;;;;;5066519;28;20219;-58
2023/06/02 07:05:04;;;;;;;1.85;1.55;;;;;;;;;;5069304;28;20210;-58
2023/06/02 07:07:32;;;;;;;1.77;1.67;;;;;;;;;;5085625;28;20256;-58
2023/06/02 07:10:00;;;;;;;2.15;1.95;;;;;;;;;;5085913;28;20218;-57
2023/06/02 07:12:27;;;;;;;2.10;2.00;;;;;;;;;;5094613;28;20222;-58
2023/06/02 07:14:54;;;;;;;1.95;1.85;;;;;;;;;;5069516;28;20211;-58
2023/06/02 07:17:21;;;;;;;1.85;1.50;;;;;;;;;;5069687;28;20219;-58
2023/06/02 07:19:48;;;;;;;1.98;1.88;;;;;;;;;;5068927;28;20199;-58
2023/06/02 07:22:15;;;;;;;2.50;2.33;;;;;;;;;;5068578;28;20268;-59
2023/06/02 07:24:43;;;;;;;2.17;2.08;;;;;;;;;;5069552;28;20211;-58
2023/06/02 07:27:11;;;;;;;2.20;2.00;;;;;;;;;;5069365;28;20214;-58
2023/06/02 07:29:38;;;;;;;2.55;1.55;;;;;;;;;;5068273;28;20291;-58
2023/06/02 07:32:07;;;;;;;1.80;1.70;;;;;;;;;;5064782;28;20702;-59
2023/06/02 07:34:34;;;;;;;5.88;2.53;;;;;;;;;;5076831;28;20217;-59
2023/06/02 07:37:02;;;;;;;2.53;1.30;;;;;;;;;;5071712;28;20223;-58
2023/06/02 07:39:30;;;;;;;2.55;2.15;;;;;;;;;;5072027;28;20219;-59
2023/06/02 07:41:57;;;;;;;4.47;2.40;;;;;;;;;;5092006;28;20304;-58
2023/06/02 07:44:25;;;;;;;2.22;2.13;;;;;;;;;;5068573;28;20268;-59
2023/06/02 07:46:52;;;;;;;2.92;1.92;;;;;;;;;;5069189;28;20269;-59
2023/06/02 07:49:19;;;;;;;2.03;1.92;;;;;;;;;;5068866;28;20227;-59
2023/06/02 07:51:46;;;;;;;1.45;1.35;;;;;;;;;;5068751;28;20238;-58
2023/06/02 07:54:13;;;;;;;2.60;1.88;;;;;;;;;;5068546;28;20542;-58
2023/06/02 07:56:40;;;;;;;5.85;1.90;;;;;;;;;;5068870;28;20260;-58
2023/06/02 07:59:09;;;;;;;2.72;1.67;;;;;;;;;;5068737;28;20225;-59
2023/06/02 08:01:37;;;;;;;6.18;1.90;;;;;;;;;;5068695;28;20199;-58
2023/06/02 08:04:04;;;;;;;2.22;1.95;;;;;;;;;;5068369;28;20720;-58
2023/06/02 08:06:32;;;;;;;1.33;1.23;;;;;;;;;;5068398;28;20233;-58
2023/06/02 08:08:59;;;;;;;2.22;1.83;;;;;;;;;;5068465;28;20591;-59
2023/06/02 08:11:26;;;;;;;2.28;2.17;;;;;;;;;;5097553;28;20287;-58
2023/06/02 08:13:53;;;;;;;1.63;1.52;;;;;;;;;;5088645;28;20213;-59
2023/06/02 08:16:20;;;;;;;1.80;1.70;;;;;;;;;;5087679;28;20503;-64
2023/06/02 08:18:48;;;;;;;2.92;2.10;;;;;;;;;;5089012;28;20271;-66
2023/06/02 08:21:15;;;;;;;4.85;1.95;;;;;;;;;;5088110;28;20317;-63
2023/06/02 08:23:42;;;;;;;2.65;2.20;;;;;;;;;;5087798;28;20664;-61
2023/06/02 08:26:10;;;;;;;2.67;2.25;;;;;;;;;;5088202;28;20471;-60
2023/06/02 08:28:37;;;;;;;2.20;2.03;;;;;;;;;;5088800;28;20214;-60
2023/06/02 08:31:04;;;;;;;2.35;2.15;;;;;;;;;;5088568;28;20279;-60
2023/06/02 08:33:33;;;;;;;1.52;1.48;;;;;;;;;;5088071;28;20214;-60
2023/06/02 08:36:02;;;;;;;1.70;1.60;;;;;;;;;;5087319;28;20918;-59
2023/06/02 08:38:30;;;;;;;1.30;1.20;;;;;;;;;;5087556;28;20272;-60
2023/06/02 08:40:58;;;;;;;1.95;1.75;;;;;;;;;;5100230;28;20233;-59
2023/06/02 08:43:25;;;;;;;5.30;2.25;;;;;;;;;;5088060;28;20246;-61
2023/06/02 08:45:53;;;;;;;1.65;1.48;;;;;;;;;;5078562;28;20215;-60
2023/06/02 08:48:20;;;;;;;2.28;1.88;;;;;;;;;;5066090;28;20217;-59
2023/06/02 08:50:48;;;;;;;2.00;1.60;;;;;;;;;;5067742;28;20331;-59
2023/06/02 08:53:17;;;;;;;2.47;1.65;;;;;;;;;;5067094;28;20622;-59
2023/06/02 08:55:44;;;;;;;1.02;1.02;;;;;;;;;;5067239;28;20268;-59
2023/06/02 08:58:11;;;;;;;4.28;1.80;;;;;;;;;;5065943;28;20241;-59
2023/06/02 09:00:39;;;;;;;3.78;2.40;;;;;;;;;;5065093;28;20256;-59
2023/06/02 09:03:06;;;;;;;1.95;1.77;;;;;;;;;;5064512;28;20760;-59
2023/06/02 09:05:33;;;;;;;2.00;1.90;;;;;;;;;;5066211;28;20207;-58
2023/06/02 09:08:18;;;;;;;2.25;2.10;;;;;;;;;;5066328;28;20265;-59
2023/06/02 09:10:48;;;;;;;7.38;2.08;;;;;;;;;;5069110;28;20222;-59
2023/06/02 09:13:29;;;;;;;3.42;2.10;;;;;;;;;;5086513;28;20210;-59
2023/06/02 09:15:57;;;;;;;1.55;1.52;;;;;;;;;;5085216;28;20206;-59
2023/06/02 09:18:24;;;;;;;1.63;1.63;;;;;;;;;;5087292;28;20605;-61
2023/06/02 09:20:52;;;;;;;2.17;1.92;;;;;;;;;;5087368;28;20271;-59
2023/06/02 09:23:19;;;;;;;2.28;1.50;;;;;;;;;;5086810;28;20218;-59
2023/06/02 09:25:47;;;;;;;2.38;1.58;;;;;;;;;;5086741;28;20304;-59
2023/06/02 09:28:14;;;;;;;1.80;1.50;;;;;;;;;;5086504;28;20214;-58
2023/06/02 09:30:41;;;;;;;1.90;1.80;;;;;;;;;;5087404;28;20210;-59
2023/06/02 09:33:11;;;;;;;2.03;1.92;;;;;;;;;;5086779;28;20309;-59
2023/06/02 09:35:40;;;;;;;2.55;2.35;;;;;;;;;;5087074;28;20824;-59
2023/06/02 09:38:09;;;;;;;1.27;1.10;;;;;;;;;;5086687;28;20220;-59
2023/06/02 09:40:37;;;;;;;2.20;1.50;;;;;;;;;;5087131;28;20295;-59
2023/06/02 09:43:06;;;;;;;1.30;1.30;;;;;;;;;;5086564;28;20647;-58
2023/06/02 09:45:33;;;;;;;1.63;1.52;;;;;;;;;;5087033;28;20231;-59
2023/06/02 09:48:00;;;;;;;1.80;1.70;;;;;;;;;;5086537;28;20218;-59
2023/06/02 09:50:36;;;;;;;2.17;2.05;;;;;;;;;;5083853;28;20218;-58
2023/06/02 09:53:07;;;;;;;3.13;1.90;;;;;;;;;;5085576;28;20221;-59
2023/06/02 09:55:35;;;;;;;2.90;1.33;;;;;;;;;;5086927;28;20656;-59
2023/06/02 09:58:02;;;;;;;1.17;1.17;;;;;;;;;;5086753;28;20305;-59
2023/06/02 10:00:31;;;;;;;3.13;2.22;;;;;;;;;;5087057;28;20237;-59
2023/06/02 10:02:58;;;;;;;1.30;1.30;;;;;;;;;;5086505;28;20684;-59
2023/06/02 10:05:25;;;;;;;1.75;1.65;;;;;;;;;;5086589;28;20541;-59
2023/06/02 10:08:04;;;;;;;1.25;1.25;;;;;;;;;;5086079;28;20210;-59
2023/06/02 10:10:35;;;;;;;2.45;2.25;;;;;;;;;;5095823;28;20217;-58
2023/06/02 10:13:13;;;;;;;3.25;2.03;;;;;;;;;;5088336;28;20237;-58
2023/06/02 10:15:49;;;;;;;1.80;1.75;;;;;;;;;;5086386;28;20723;-58
2023/06/02 10:18:34;;;;;;;0.80;0.80;;;;;;;;;;5086495;28;20210;-58
2023/06/02 10:21:06;;;;;;;1.10;1.10;;;;;;;;;;5086254;28;20797;-58
2023/06/02 10:23:44;;;;;;;5.80;1.63;;;;;;;;;;5085813;28;20631;-58
2023/06/02 10:26:17;;;;;;;6.18;1.98;;;;;;;;;;5086215;28;20206;-58
2023/06/02 10:28:44;;;;;;;2.25;1.70;;;;;;;;;;5086764;28;20210;-58
2023/06/02 10:31:13;;;;;;;2.05;1.58;;;;;;;;;;5086117;28;20237;-58
2023/06/02 10:33:44;;;;;;;1.80;1.70;;;;;;;;;;5086420;28;20635;-58
2023/06/02 10:36:13;;;;;;;3.33;1.50;;;;;;;;;;5085330;28;20737;-58
2023/06/02 10:38:40;;;;;;;3.00;1.73;;;;;;;;;;5085587;28;20206;-58
2023/06/02 10:41:07;;;;;;;1.83;1.63;;;;;;;;;;5097376;28;20209;-58
2023/06/02 10:43:35;;;;;;;2.17;1.63;;;;;;;;;;5085221;28;20243;-58
2023/06/02 10:46:20;;;;;;;2.05;1.35;;;;;;;;;;5087563;28;20237;-58
2023/06/02 10:48:48;;;;;;;1.58;1.40;;;;;;;;;;5089163;28;20217;-58
2023/06/02 10:51:15;;;;;;;1.60;1.50;;;;;;;;;;5089779;28;20657;-58
2023/06/02 10:54:02;;;;;;;1.77;1.67;;;;;;;;;;5088817;28;20213;-58
2023/06/02 10:56:42;;;;;;;1.65;1.40;;;;;;;;;;5089146;28;20213;-58
2023/06/02 10:59:10;;;;;;;3.70;1.58;;;;;;;;;;5089198;28;20202;-58
2023/06/02 11:01:49;;;;;;;1.27;1.27;;;;;;;;;;5089433;28;20233;-59
2023/06/02 11:04:25;;;;;;;4.68;2.10;;;;;;;;;;5089123;28;20229;-58
2023/06/02 11:07:08;;;;;;;2.92;0.90;;;;;;;;;;5088790;28;20206;-58
2023/06/02 11:09:36;;;;;;;2.05;1.85;;;;;;;;;;5090530;28;20238;-58
2023/06/02 11:12:03;;;;;;;1.45;1.45;;;;;;;;;;5099332;28;20242;-58
2023/06/02 11:14:50;;;;;;;2.17;2.00;;;;;;;;;;5088717;28;20351;-58
2023/06/02 11:17:30;;;;;;;2.65;1.25;;;;;;;;;;5088813;28;20214;-58
2023/06/02 11:19:58;;;;;;;1.92;1.52;;;;;;;;;;5088693;28;20278;-58
2023/06/02 11:22:25;;;;;;;1.85;1.70;;;;;;;;;;5088896;28;20513;-58
2023/06/02 11:24:52;;;;;;;1.60;1.52;;;;;;;;;;5088553;28;20214;-60
2023/06/02 11:27:20;;;;;;;2.13;1.55;;;;;;;;;;5088849;28;20664;-58
2023/06/02 11:29:47;;;;;;;3.72;1.40;;;;;;;;;;5088614;28;20657;-59
2023/06/02 11:32:15;;;;;;;2.58;1.90;;;;;;;;;;5089132;28;20230;-59
2023/06/02 11:34:43;;;;;;;1.55;1.45;;;;;;;;;;5070303;28;20806;-59
2023/06/02 11:37:16;;;;;;;1.77;1.67;;;;;;;;;;5068373;28;20213;-59
2023/06/02 11:39:53;;;;;;;3.45;1.52;;;;;;;;;;5071022;28;20284;-59
2023/06/02 11:42:20;;;;;;;1.38;1.20;;;;;;;;;;5080467;28;20326;-59
2023/06/02 11:44:51;;;;;;;1.88;1.77;;;;;;;;;;5088679;28;20222;-59
2023/06/02 11:47:21;;;;;;;1.80;1.20;;;;;;;;;;5088244;28;20206;-59
2023/06/02 11:49:48;;;;;;;2.15;1.38;;;;;;;;;;5088566;28;20210;-59
2023/06/02 11:52:16;;;;;;;1.50;0.98;;;;;;;;;;5087972;28;20233;-59
2023/06/02 11:54:50;;;;;;;1.60;1.50;;;;;;;;;;5088405;28;20210;-59
2023/06/02 11:57:25;;;;;;;1.40;1.30;;;;;;;;;;5086746;28;20206;-59
2023/06/02 12:00:04;;;;;;;6.85;2.10;;;;;;;;;;5088170;28;20259;-59
2023/06/02 12:02:31;;;;;;;1.25;1.15;;;;;;;;;;5088245;28;20206;-59
2023/06/02 12:04:58;;;;;;;2.50;1.50;;;;;;;;;;5088126;28;20259;-59
2023/06/02 12:07:29;;;;;;;1.48;1.48;;;;;;;;;;5087988;28;20267;-59
2023/06/02 12:09:57;;;;;;;1.10;1.10;;;;;;;;;;5092712;28;20736;-59
2023/06/02 12:12:24;;;;;;;1.92;1.80;;;;;;;;;;5095168;28;20230;-59
2023/06/02 12:14:51;;;;;;;2.15;1.58;;;;;;;;;;5087860;28;20668;-59
2023/06/02 12:17:18;;;;;;;1.27;1.13;;;;;;;;;;5088216;28;20209;-59
2023/06/02 12:19:45;;;;;;;1.45;1.35;;;;;;;;;;5087483;28;20272;-59
2023/06/02 12:22:14;;;;;;;1.30;1.30;;;;;;;;;;5087797;28;20252;-59
2023/06/02 12:24:44;;;;;;;1.40;1.27;;;;;;;;;;5087467;28;20294;-59
2023/06/02 12:27:14;;;;;;;1.30;1.25;;;;;;;;;;5087816;28;20215;-59
2023/06/02 12:29:41;;;;;;;4.70;1.23;;;;;;;;;;5087557;28;20287;-60
2023/06/02 12:32:09;;;;;;;4.10;1.40;;;;;;;;;;5087669;28;20720;-59
2023/06/02 12:34:37;;;;;;;1.42;1.38;;;;;;;;;;5087409;28;20222;-59
2023/06/02 12:37:05;;;;;;;0.85;0.85;;;;;;;;;;5087440;28;20210;-59
2023/06/02 12:39:34;;;;;;;3.08;1.25;;;;;;;;;;5088315;28;20660;-59
2023/06/02 12:42:02;;;;;;;1.63;1.20;;;;;;;;;;5098059;28;20242;-59
2023/06/02 12:44:29;;;;;;;2.60;1.40;;;;;;;;;;5086956;28;20222;-59
2023/06/02 12:46:56;;;;;;;1.45;1.20;;;;;;;;;;5087559;28;20217;-59
2023/06/02 12:49:23;;;;;;;2.53;1.50;;;;;;;;;;5085065;28;20210;-59
2023/06/02 12:51:50;;;;;;;1.23;1.23;;;;;;;;;;5075375;28;20222;-59
2023/06/02 12:54:17;;;;;;;3.90;1.10;;;;;;;;;;5073677;28;20211;-59
2023/06/02 12:56:44;;;;;;;1.63;1.00;;;;;;;;;;5087184;28;20210;-59
2023/06/02 12:59:13;;;;;;;1.35;1.25;;;;;;;;;;5087440;28;20259;-59
2023/06/02 13:01:40;;;;;;;1.30;1.20;;;;;;;;;;5087674;28;20203;-59
2023/06/02 13:04:07;;;;;;;3.47;0.90;;;;;;;;;;5087426;28;20292;-60
2023/06/02 13:06:36;;;;;;;1.45;1.23;;;;;;;;;;5087486;28;20271;-60
2023/06/02 13:09:03;;;;;;;2.40;1.02;;;;;;;;;;5084748;28;20206;-59
2023/06/02 13:11:30;;;;;;;2.72;1.15;;;;;;;;;;5079005;28;20211;-59
2023/06/02 13:13:58;;;;;;;3.20;1.05;;;;;;;;;;5078016;28;20227;-59
2023/06/02 13:16:26;;;;;;;1.05;1.05;;;;;;;;;;5066741;28;20215;-59
2023/06/02 13:18:53;;;;;;;1.58;1.33;;;;;;;;;;5083603;28;20222;-59
2023/06/02 13:21:20;;;;;;;3.85;1.23;;;;;;;;;;5067585;28;20234;-60
2023/06/02 13:23:54;;;;;;;0.85;0.82;;;;;;;;;;5066821;28;20637;-59
2023/06/02 13:26:21;;;;;;;1.63;1.10;;;;;;;;;;5067071;28;20264;-59
2023/06/02 13:28:48;;;;;;;2.22;0.80;;;;;;;;;;5067054;28;20207;-59
2023/06/02 13:31:15;;;;;;;1.45;1.08;;;;;;;;;;5066850;28;20203;-59
2023/06/02 13:33:43;;;;;;;2.15;1.00;;;;;;;;;;5066883;28;20237;-59
2023/06/02 13:36:10;;;;;;;1.30;1.20;;;;;;;;;;5066805;28;20229;-59
2023/06/02 13:38:39;;;;;;;1.38;1.05;;;;;;;;;;5067162;28;20214;-59
2023/06/02 13:41:06;;;;;;;1.02;1.02;;;;;;;;;;5092928;28;20672;-59
2023/06/02 13:43:33;;;;;;;1.55;1.08;;;;;;;;;;5071267;28;20243;-59
2023/06/02 13:46:00;;;;;;;2.28;0.88;;;;;;;;;;5065678;28;20301;-59
2023/06/02 13:48:28;;;;;;;1.77;1.13;;;;;;;;;;5066949;28;20876;-59
2023/06/02 13:50:59;;;;;;;1.00;1.00;;;;;;;;;;5070859;28;20264;-59
2023/06/02 13:53:26;;;;;;;4.60;1.52;;;;;;;;;;5063040;28;20230;-59
2023/06/02 13:55:53;;;;;;;1.67;1.00;;;;;;;;;;5067443;28;20302;-59
2023/06/02 13:58:20;;;;;;;1.30;1.20;;;;;;;;;;5067994;28;20854;-60
2023/06/02 14:00:48;;;;;;;2.05;0.88;;;;;;;;;;5070066;28;20268;-60
2023/06/02 14:03:15;;;;;;;1.48;1.00;;;;;;;;;;5065829;28;20721;-60
2023/06/02 14:05:42;;;;;;;1.05;1.05;;;;;;;;;;5073657;28;20206;-61
2023/06/02 14:08:10;;;;;;;1.25;1.15;;;;;;;;;;5077414;28;20198;-59
2023/06/02 14:10:37;;;;;;;3.55;1.73;;;;;;;;;;5095848;28;20213;-59
2023/06/02 14:13:04;;;;;;;2.22;1.50;;;;;;;;;;5085732;28;20260;-59
2023/06/02 14:15:31;;;;;;;2.40;1.30;;;;;;;;;;5081524;28;20202;-58
2023/06/02 14:17:58;;;;;;;0.60;0.60;;;;;;;;;;5074641;28;20229;-61
2023/06/02 14:20:25;;;;;;;2.03;1.10;;;;;;;;;;5078143;28;20562;-60
2023/06/02 14:22:52;;;;;;;3.90;1.05;;;;;;;;;;5065417;28;20206;-61
2023/06/02 14:25:20;;;;;;;1.23;1.00;;;;;;;;;;5064987;28;20647;-61
2023/06/02 14:27:48;;;;;;;1.50;1.40;;;;;;;;;;5064420;28;20217;-61
2023/06/02 14:30:15;;;;;;;1.25;1.15;;;;;;;;;;5083512;28;20217;-61
2023/06/02 14:32:42;;;;;;;1.15;0.38;;;;;;;;;;5085481;28;20253;-61
2023/06/02 14:35:09;;;;;;;1.90;1.10;;;;;;;;;;5084372;28;20275;-61
2023/06/02 14:37:36;;;;;;;1.08;1.00;;;;;;;;;;5085362;28;20206;-61
2023/06/02 14:40:03;;;;;;;3.65;1.33;;;;;;;;;;5083911;28;20629;-61
2023/06/02 14:42:32;;;;;;;2.05;1.10;;;;;;;;;;5081479;28;20319;-61
2023/06/02 14:44:59;;;;;;;0.90;0.85;;;;;;;;;;5078729;28;20587;-62
2023/06/02 14:47:31;;;;;;;2.58;1.38;;;;;;;;;;5079358;28;21097;-61
2023/06/02 14:49:58;;;;;;;0.85;0.85;;;;;;;;;;5083441;28;20287;-62